Time;durP1;ratioP1;P1;durP2;ratioP2;P2;SDS_P1;SDS_P2;PMS_P1;PMS_P2;Temp;Humidity;BMP_temperature;BMP_pressure;BME280_temperature;BME280_humidity;BME280_pressure;Samples;Min_cycle;Max_cycle;Signal;HPM_P1;HPM_P2
2021/05/20 00:05:38;;;;;;;11.65;6.08;;;;;;;7.52;100.00;100201.88;712366;1206;114411;-74
2021/05/20 00:20:58;;;;;;;9.48;5.88;;;;;;;7.31;100.00;100212.17;712288;1202;115183;-74
2021/05/20 00:36:19;;;;;;;11.10;5.50;;;;;;;7.26;100.00;100219.55;712326;1202;114396;-73
2021/05/20 00:51:45;;;;;;;9.60;5.60;;;;;;;7.27;100.00;100210.75;712247;1178;114555;-73
2021/05/20 01:07:06;;;;;;;13.40;5.60;;;;;;;7.13;100.00;100217.84;712245;1203;115082;-74
2021/05/20 01:22:27;;;;;;;6.75;4.68;;;;;;;7.00;100.00;100217.91;712572;1202;116096;-74
2021/05/20 01:37:49;;;;;;;7.70;4.70;;;;;;;6.95;100.00;100221.81;712407;1180;113658;-75
2021/05/20 01:53:09;;;;;;;12.15;5.30;;;;;;;6.90;100.00;100216.10;712427;1205;115571;-74
2021/05/20 02:08:31;;;;;;;7.90;5.15;;;;;;;6.79;100.00;100222.11;712594;1185;113850;-74
2021/05/20 02:23:52;;;;;;;9.10;5.00;;;;;;;6.74;100.00;100225.04;712429;1177;114343;-74
2021/05/20 02:39:12;;;;;;;8.33;5.03;;;;;;;6.62;100.00;100225.94;712405;1203;114340;-73
2021/05/20 02:54:33;;;;;;;9.83;5.43;;;;;;;6.52;100.00;100222.33;712522;1206;114900;-73
2021/05/20 03:09:53;;;;;;;11.45;5.25;;;;;;;6.59;100.00;100244.42;712505;1203;113929;-73
2021/05/20 03:25:18;;;;;;;6.45;5.20;;;;;;;6.73;100.00;100248.63;712713;1179;114089;-73
2021/05/20 03:40:39;;;;;;;9.73;5.68;;;;;;;6.83;100.00;100257.45;712505;1208;115264;-73
2021/05/20 03:55:59;;;;;;;8.17;5.70;;;;;;;7.25;100.00;100268.27;712493;1179;113809;-73
2021/05/20 04:11:20;;;;;;;12.65;6.30;;;;;;;7.49;100.00;100270.81;713217;1203;115109;-74
2021/05/20 04:26:40;;;;;;;11.60;6.50;;;;;;;7.81;100.00;100283.23;714946;1202;114467;-75
2021/05/20 04:42:01;;;;;;;11.73;7.03;;;;;;;8.24;100.00;100296.53;713002;1203;115065;-73
2021/05/20 04:57:22;;;;;;;11.15;6.90;;;;;;;8.77;100.00;100308.95;715108;1205;115615;-74
2021/05/20 05:12:43;;;;;;;11.55;7.10;;;;;;;9.33;100.00;100313.98;715465;1169;114439;-74
2021/05/20 05:28:04;;;;;;;12.40;6.50;;;;;;;9.85;100.00;100317.63;712333;1205;115268;-74
2021/05/20 05:43:25;;;;;;;8.28;5.75;;;;;;;10.21;100.00;100318.06;712472;1202;114739;-74
2021/05/20 05:58:46;;;;;;;10.87;6.23;;;;;;;10.80;100.00;100317.28;712470;1202;114210;-75
2021/05/20 06:14:08;;;;;;;9.30;6.00;;;;;;;11.23;100.00;100317.88;712487;1202;114640;-74
2021/05/20 06:29:28;;;;;;;9.50;5.80;;;;;;;11.71;100.00;100326.66;712903;1203;113941;-75
2021/05/20 06:44:48;;;;;;;8.95;4.90;;;;;;;12.48;100.00;100323.91;712584;1202;114137;-77
2021/05/20 07:00:09;;;;;;;6.20;4.20;;;;;;;13.09;100.00;100321.58;712506;1202;115453;-77
2021/05/20 07:15:29;;;;;;;3.78;3.13;;;;;;;13.80;100.00;100331.23;713336;1203;114825;-77
2021/05/20 07:30:50;;;;;;;4.30;2.60;;;;;;;14.49;99.14;100330.42;714435;1206;114046;-82
2021/05/20 07:46:11;;;;;;;6.73;4.23;;;;;;;15.45;98.13;100318.53;712695;1205;115522;-81
2021/05/20 08:01:33;;;;;;;4.25;3.10;;;;;;;16.29;93.19;100317.37;712519;1205;115099;-81
2021/05/20 08:16:54;;;;;;;5.35;2.95;;;;;;;17.75;88.51;100306.90;712505;1202;114460;-81
2021/05/20 08:32:14;;;;;;;3.87;2.00;;;;;;;17.54;80.52;100302.30;712447;1205;113966;-87
2021/05/20 08:47:35;;;;;;;2.83;2.20;;;;;;;17.83;77.57;100320.10;712641;1197;114032;-86
2021/05/20 09:03:13;;;;;;;3.83;2.95;;;;;;;17.68;77.02;100330.67;713008;1203;115212;-80
2021/05/20 09:18:39;;;;;;;2.75;1.85;;;;;;;17.86;70.39;100321.56;712774;1202;115368;-80
2021/05/20 09:34:11;;;;;;;3.40;2.10;;;;;;;18.25;71.52;100323.13;712844;1203;115734;-81
2021/05/20 09:49:32;;;;;;;4.90;2.00;;;;;;;18.17;65.96;100307.30;712988;1202;114036;-80
2021/05/20 10:04:54;;;;;;;3.10;2.20;;;;;;;18.82;68.54;100302.11;712555;1202;113955;-87
2021/05/20 10:20:17;;;;;;;4.63;2.13;;;;;;;18.97;60.92;100288.81;712802;1188;114611;-87
2021/05/20 10:35:42;;;;;;;2.88;1.83;;;;;;;19.55;59.93;100280.69;714667;1202;114683;-87
2021/05/20 10:51:05;;;;;;;2.00;1.80;;;;;;;19.85;60.49;100277.80;714029;1178;115949;-88
2021/05/20 11:06:38;;;;;;;2.47;1.83;;;;;;;20.28;57.85;100270.45;714700;1186;114278;-84
2021/05/20 11:21:58;;;;;;;2.93;1.90;;;;;;;19.45;57.58;100275.69;713010;1178;113889;-83
2021/05/20 11:37:38;;;;;;;11.15;4.78;;;;;;;17.98;60.18;100282.97;713830;1203;115363;-84
2021/05/20 11:53:11;;;;;;;1.77;1.53;;;;;;;16.19;68.07;100296.38;713092;1202;115199;-76
2021/05/20 12:08:31;;;;;;;2.08;1.40;;;;;;;16.04;70.33;100296.28;713037;1202;114322;-75
2021/05/20 12:23:58;;;;;;;2.93;1.93;;;;;;;17.07;69.40;100283.81;713284;1202;115185;-75
2021/05/20 12:39:19;;;;;;;3.50;2.35;;;;;;;17.28;63.44;100284.98;713673;1202;115461;-77
2021/05/20 12:54:39;;;;;;;2.77;1.60;;;;;;;18.39;64.22;100281.64;713193;1202;114378;-74
2021/05/20 13:10:02;;;;;;;2.70;0.90;;;;;;;19.84;59.77;100276.19;713306;1202;115689;-75
2021/05/20 13:25:23;;;;;;;1.68;1.18;;;;;;;19.05;57.98;100262.91;713129;1206;114427;-76
2021/05/20 13:40:44;;;;;;;2.18;1.00;;;;;;;17.93;57.43;100261.47;713720;1205;114670;-77
2021/05/20 13:56:05;;;;;;;1.55;1.00;;;;;;;18.22;59.31;100259.79;713790;1206;115132;-75
2021/05/20 14:11:25;;;;;;;1.97;1.10;;;;;;;19.26;58.56;100247.95;713579;1202;115131;-75
2021/05/20 14:26:47;;;;;;;2.00;1.40;;;;;;;19.49;57.97;100257.52;713128;1201;115345;-76
2021/05/20 14:42:08;;;;;;;9.00;8.30;;;;;;;18.78;57.48;100254.67;714936;1195;115418;-77
2021/05/20 14:58:55;;;;;;;1.40;1.00;;;;;;;18.94;55.15;100247.49;714516;1202;115227;-75
2021/05/20 15:13:38;;;;;;;3.40;1.37;;;;;;;18.32;58.30;100255.02;712743;1202;115126;-75
2021/05/20 15:28:52;;;;;;;1.80;1.13;;;;;;;16.64;59.44;100254.28;712743;1202;114752;-76
2021/05/20 15:44:16;;;;;;;22.10;12.70;;;;;;;16.11;62.73;100272.61;712550;1202;114822;-75
2021/05/20 15:59:36;;;;;;;10.45;5.98;;;;;;;16.38;62.79;100263.39;712566;1202;115048;-75
2021/05/20 16:15:00;;;;;;;9.83;5.40;;;;;;;16.96;64.62;100253.27;713081;1203;114951;-72
2021/05/20 16:46:00;;;;;;;4.93;3.70;;;;;;;16.98;65.90;100247.78;713231;1202;115817;-75
2021/05/20 17:01:21;;;;;;;17.50;7.35;;;;;;;17.33;66.03;100256.11;713174;1202;115045;-77
2021/05/20 17:16:41;;;;;;;12.15;6.18;;;;;;;16.89;66.60;100265.56;713246;1203;114757;-80
2021/05/20 17:32:01;;;;;;;10.28;6.63;;;;;;;16.42;66.01;100275.28;712785;1202;114627;-79
2021/05/20 17:47:22;;;;;;;9.60;5.20;;;;;;;15.66;67.66;100266.94;712722;1203;114883;-85
2021/05/20 18:02:43;;;;;;;44.05;18.90;;;;;;;15.14;69.78;100270.80;713188;1202;114902;-82
2021/05/20 18:33:43;;;;;;;131.50;63.65;;;;;;;13.56;74.58;100278.35;713261;1196;114279;-81
2021/05/20 18:49:05;;;;;;;26.83;15.60;;;;;;;13.31;77.72;100278.14;712555;1177;114491;-76
2021/05/20 19:04:29;;;;;;;24.20;11.10;;;;;;;12.92;80.43;100289.84;712420;1203;114277;-76
2021/05/20 19:19:52;;;;;;;24.95;11.45;;;;;;;12.79;82.77;100286.76;712533;1192;116547;-78
2021/05/20 19:35:16;;;;;;;28.40;12.75;;;;;;;12.75;85.60;100298.56;712957;1202;114942;-75
2021/05/20 19:51:23;;;;;;;18.80;10.30;;;;;;;12.35;87.27;100292.68;712504;1205;115543;-74
2021/05/20 20:21:57;;;;;;;41.23;15.87;;;;;;;11.89;93.84;100287.34;712420;1179;115036;-74
2021/05/20 20:37:24;;;;;;;33.70;17.43;;;;;;;11.78;96.35;100279.61;712857;1187;114334;-76
2021/05/20 20:52:44;;;;;;;87.73;36.80;;;;;;;11.72;100.00;100309.93;713929;1203;114827;-74
2021/05/20 21:08:05;;;;;;;52.78;26.10;;;;;;;11.45;100.00;100273.89;712732;1202;114734;-74
2021/05/20 21:23:26;;;;;;;30.33;14.85;;;;;;;11.06;100.00;100274.77;713336;1201;115726;-73
2021/05/20 21:38:46;;;;;;;35.68;17.60;;;;;;;10.52;100.00;100255.09;712895;1205;115467;-73
2021/05/20 21:54:07;;;;;;;30.00;15.55;;;;;;;10.43;100.00;100256.75;713108;1183;114396;-74
2021/05/20 22:09:51;;;;;;;;;;;;;;;10.21;100.00;100274.31;712529;1190;114656;-75
2021/05/20 22:25:17;;;;;;;42.23;18.80;;;;;;;10.25;100.00;100259.16;712670;1179;101094;-75
2021/05/20 22:40:37;;;;;;;34.43;15.78;;;;;;;10.29;100.00;100257.92;713071;1202;115699;-75
2021/05/20 22:55:58;;;;;;;33.23;14.38;;;;;;;10.28;100.00;100248.39;712821;1202;115834;-74
2021/05/20 23:11:18;;;;;;;15.90;9.97;;;;;;;9.88;100.00;100289.35;712698;1178;114438;-74
2021/05/20 23:26:39;;;;;;;5.95;3.70;;;;;;;9.65;100.00;100271.18;712390;1202;115410;-75
2021/05/20 23:42:01;;;;;;;5.50;3.15;;;;;;;10.01;100.00;100215.76;712330;1177;114000;-74
2021/05/20 23:57:22;;;;;;;3.25;2.40;;;;;;;9.77;100.00;100216.92;712660;1202;115359;-73
